This is the latest recevied weather packets stored in our database for station/object ES2ADF-5. If no packets are shown the sender has not sent any weather packets the latest 10 day(s).
| Time | Temp. | Humidity | Pressure | Rain* | Wind** | Luminosity | Snow |
|---|---|---|---|---|---|---|---|
| 1777959615 | 20° C | 44% | 1003.1 hPa | 0 mm | - | - | - |
| 1777959315 | 20° C | 43% | 1003.2 hPa | 0 mm | - | - | - |
| 1777959015 | 20° C | 45% | 1003 hPa | 0 mm | - | - | - |
| 1777958714 | 20° C | 46% | 1002.9 hPa | 0 mm | - | - | - |
| 1777958414 | 20° C | 46% | 1003 hPa | 0 mm | - | - | - |
| 1777958114 | 19.44° C | 46% | 1003 hPa | 0 mm | - | - | - |
| 1777957814 | 20° C | 47% | 1002.8 hPa | 0 mm | - | - | - |
| 1777957513 | 20° C | 50% | 1003 hPa | 0 mm | - | - | - |
| 1777957213 | 19.44° C | 53% | 1002.9 hPa | 0 mm | - | - | - |
| 1777956913 | 18.89° C | 56% | 1002.8 hPa | 0 mm | - | - | - |
| 1777956612 | 18.89° C | 57% | 1002.6 hPa | 0 mm | - | - | - |
| 1777956312 | 17.78° C | 62% | 1002.6 hPa | 0 mm | - | - | - |
| 1777956012 | 16.67° C | 66% | 1002.5 hPa | 0 mm | - | - | - |
| 1777955712 | 15° C | 72% | 1002.4 hPa | 0 mm | - | - | - |
| 1777955411 | 12.22° C | 82% | 1002.3 hPa | 0 mm | - | - | - |
| 1777955111 | 10.56° C | 85% | 1002.2 hPa | 0 mm | - | - | - |
| 1777954811 | 9.44° C | 86% | 1002.3 hPa | 0 mm | - | - | - |
| 1777954510 | 8.89° C | 87% | 1002.5 hPa | 0 mm | - | - | - |
| 1777954210 | 8.33° C | 88% | 1002.4 hPa | 0 mm | - | - | - |
| 1777953910 | 8.33° C | 89% | 1002.5 hPa | 0 mm | - | - | - |
| 1777953610 | 7.78° C | 90% | 1002.4 hPa | 0 mm | - | - | - |
| 1777953309 | 7.78° C | 90% | 1002.5 hPa | 0 mm | - | - | - |
| 1777953009 | 7.78° C | 90% | 1002.5 hPa | 0 mm | - | - | - |
| 1777952709 | 7.22° C | 90% | 1002.4 hPa | 0 mm | - | - | - |
| 1777952408 | 7.22° C | 90% | 1002.5 hPa | 0 mm | - | - | - |
* Rain latest hour (hover to see other rain measurements)
** Current wind speed in m/s (hover to see current wind gust speed)